sensor_id;sensor_type;location;lat;lon;timestamp;temperature;humidity
64226;DHT22;50545;56.064;26.178;2023-04-06T00:01:09;2.30;99.90
64226;DHT22;50545;56.064;26.178;2023-04-06T00:03:37;2.30;99.90
64226;DHT22;50545;56.064;26.178;2023-04-06T00:06:05;2.30;99.90
64226;DHT22;50545;56.064;26.178;2023-04-06T00:08:32;2.30;99.90
64226;DHT22;50545;56.064;26.178;2023-04-06T00:11:00;2.30;99.90
64226;DHT22;50545;56.064;26.178;2023-04-06T00:13:27;2.20;99.90
64226;DHT22;50545;56.064;26.178;2023-04-06T00:15:54;2.30;99.90
64226;DHT22;50545;56.064;26.178;2023-04-06T00:18:22;2.20;99.90
64226;DHT22;50545;56.064;26.178;2023-04-06T00:20:50;2.20;99.90
64226;DHT22;50545;56.064;26.178;2023-04-06T00:23:18;2.20;99.90
64226;DHT22;50545;56.064;26.178;2023-04-06T00:25:45;2.30;99.90
64226;DHT22;50545;56.064;26.178;2023-04-06T00:28:12;2.30;99.90
64226;DHT22;50545;56.064;26.178;2023-04-06T00:30:40;2.30;99.90
64226;DHT22;50545;56.064;26.178;2023-04-06T00:33:08;2.30;99.90
64226;DHT22;50545;56.064;26.178;2023-04-06T00:35:35;2.30;99.90
64226;DHT22;50545;56.064;26.178;2023-04-06T00:38:02;2.30;99.90
64226;DHT22;50545;56.064;26.178;2023-04-06T00:40:29;2.30;99.90
64226;DHT22;50545;56.064;26.178;2023-04-06T00:42:58;2.30;99.90
64226;DHT22;50545;56.064;26.178;2023-04-06T00:45:25;2.30;99.90
64226;DHT22;50545;56.064;26.178;2023-04-06T00:47:52;2.30;99.90
64226;DHT22;50545;56.064;26.178;2023-04-06T00:50:19;2.30;99.90
64226;DHT22;50545;56.064;26.178;2023-04-06T00:52:47;2.30;99.90
64226;DHT22;50545;56.064;26.178;2023-04-06T00:55:14;2.30;99.90
64226;DHT22;50545;56.064;26.178;2023-04-06T00:57:42;2.30;99.90
64226;DHT22;50545;56.064;26.178;2023-04-06T01:00:10;2.30;99.90
64226;DHT22;50545;56.064;26.178;2023-04-06T01:02:37;2.30;99.90
64226;DHT22;50545;56.064;26.178;2023-04-06T01:05:05;2.30;99.90
64226;DHT22;50545;56.064;26.178;2023-04-06T01:07:32;2.30;99.90
64226;DHT22;50545;56.064;26.178;2023-04-06T01:09:59;2.30;99.90
64226;DHT22;50545;56.064;26.178;2023-04-06T01:12:27;2.30;99.90
64226;DHT22;50545;56.064;26.178;2023-04-06T01:14:54;2.30;99.90
64226;DHT22;50545;56.064;26.178;2023-04-06T01:17:22;2.30;99.90
64226;DHT22;50545;56.064;26.178;2023-04-06T01:19:49;2.30;99.90
64226;DHT22;50545;56.064;26.178;2023-04-06T01:22:18;2.40;99.90
64226;DHT22;50545;56.064;26.178;2023-04-06T01:24:46;2.40;99.90
64226;DHT22;50545;56.064;26.178;2023-04-06T01:27:13;2.30;99.90
64226;DHT22;50545;56.064;26.178;2023-04-06T01:29:41;2.40;99.90
64226;DHT22;50545;56.064;26.178;2023-04-06T01:32:08;2.30;99.90
64226;DHT22;50545;56.064;26.178;2023-04-06T01:34:36;2.30;99.90
64226;DHT22;50545;56.064;26.178;2023-04-06T01:37:03;2.40;99.90
64226;DHT22;50545;56.064;26.178;2023-04-06T01:39:30;2.40;99.90
64226;DHT22;50545;56.064;26.178;2023-04-06T01:41:58;2.40;99.90
64226;DHT22;50545;56.064;26.178;2023-04-06T01:44:25;2.40;99.90
64226;DHT22;50545;56.064;26.178;2023-04-06T01:46:52;2.40;99.90
64226;DHT22;50545;56.064;26.178;2023-04-06T01:49:19;2.40;99.90
64226;DHT22;50545;56.064;26.178;2023-04-06T01:51:47;2.40;99.90
64226;DHT22;50545;56.064;26.178;2023-04-06T01:54:14;2.40;99.90
64226;DHT22;50545;56.064;26.178;2023-04-06T01:56:41;2.40;99.90
64226;DHT22;50545;56.064;26.178;2023-04-06T01:59:09;2.40;99.90
64226;DHT22;50545;56.064;26.178;2023-04-06T02:01:36;2.40;99.90
64226;DHT22;50545;56.064;26.178;2023-04-06T02:04:04;2.40;99.90
64226;DHT22;50545;56.064;26.178;2023-04-06T02:06:31;2.40;99.90
64226;DHT22;50545;56.064;26.178;2023-04-06T02:08:58;2.40;99.90
64226;DHT22;50545;56.064;26.178;2023-04-06T02:11:26;2.40;99.90
64226;DHT22;50545;56.064;26.178;2023-04-06T02:13:53;2.40;99.90
64226;DHT22;50545;56.064;26.178;2023-04-06T02:16:20;2.40;99.90
64226;DHT22;50545;56.064;26.178;2023-04-06T02:18:48;2.40;99.90
64226;DHT22;50545;56.064;26.178;2023-04-06T02:21:16;2.50;99.90
64226;DHT22;50545;56.064;26.178;2023-04-06T02:23:47;2.40;99.90
64226;DHT22;50545;56.064;26.178;2023-04-06T02:26:14;2.50;99.90
64226;DHT22;50545;56.064;26.178;2023-04-06T02:28:42;2.50;99.90
64226;DHT22;50545;56.064;26.178;2023-04-06T02:31:09;2.50;99.90
64226;DHT22;50545;56.064;26.178;2023-04-06T02:33:36;2.50;99.90
64226;DHT22;50545;56.064;26.178;2023-04-06T02:36:04;2.50;99.90
64226;DHT22;50545;56.064;26.178;2023-04-06T02:38:31;2.50;99.90
64226;DHT22;50545;56.064;26.178;2023-04-06T02:40:58;2.50;99.90
64226;DHT22;50545;56.064;26.178;2023-04-06T02:43:26;2.50;99.90
64226;DHT22;50545;56.064;26.178;2023-04-06T02:45:53;2.50;99.90
64226;DHT22;50545;56.064;26.178;2023-04-06T02:48:20;2.50;99.90
64226;DHT22;50545;56.064;26.178;2023-04-06T02:50:48;2.50;99.90
64226;DHT22;50545;56.064;26.178;2023-04-06T02:53:15;2.50;99.90
64226;DHT22;50545;56.064;26.178;2023-04-06T02:55:42;2.50;99.90
64226;DHT22;50545;56.064;26.178;2023-04-06T02:58:09;2.50;99.90
64226;DHT22;50545;56.064;26.178;2023-04-06T03:00:37;2.50;99.90
64226;DHT22;50545;56.064;26.178;2023-04-06T03:03:04;2.60;99.90
64226;DHT22;50545;56.064;26.178;2023-04-06T03:05:32;2.50;99.90
64226;DHT22;50545;56.064;26.178;2023-04-06T03:07:59;2.60;99.90
64226;DHT22;50545;56.064;26.178;2023-04-06T03:10:27;2.60;99.90
64226;DHT22;50545;56.064;26.178;2023-04-06T03:12:54;2.60;99.90
64226;DHT22;50545;56.064;26.178;2023-04-06T03:15:21;2.60;99.90
64226;DHT22;50545;56.064;26.178;2023-04-06T03:17:48;2.60;99.90
64226;DHT22;50545;56.064;26.178;2023-04-06T03:20:16;2.60;99.90
64226;DHT22;50545;56.064;26.178;2023-04-06T03:22:43;2.60;99.90
64226;DHT22;50545;56.064;26.178;2023-04-06T03:25:10;2.60;99.90
64226;DHT22;50545;56.064;26.178;2023-04-06T03:27:37;2.60;99.90
64226;DHT22;50545;56.064;26.178;2023-04-06T03:30:05;2.60;99.90
64226;DHT22;50545;56.064;26.178;2023-04-06T03:32:33;2.60;99.90
64226;DHT22;50545;56.064;26.178;2023-04-06T03:35:00;2.70;99.90
64226;DHT22;50545;56.064;26.178;2023-04-06T03:37:27;2.70;99.90
64226;DHT22;50545;56.064;26.178;2023-04-06T03:39:55;2.70;99.90
64226;DHT22;50545;56.064;26.178;2023-04-06T03:42:22;2.70;99.90
64226;DHT22;50545;56.064;26.178;2023-04-06T03:44:49;2.70;99.90
64226;DHT22;50545;56.064;26.178;2023-04-06T03:47:17;2.70;99.90
64226;DHT22;50545;56.064;26.178;2023-04-06T03:49:44;2.70;99.90
64226;DHT22;50545;56.064;26.178;2023-04-06T03:52:11;2.70;99.90
64226;DHT22;50545;56.064;26.178;2023-04-06T03:54:39;2.70;99.90
64226;DHT22;50545;56.064;26.178;2023-04-06T03:57:06;2.80;99.90
64226;DHT22;50545;56.064;26.178;2023-04-06T03:59:33;2.80;99.90
64226;DHT22;50545;56.064;26.178;2023-04-06T04:02:00;2.80;99.90
64226;DHT22;50545;56.064;26.178;2023-04-06T04:04:28;2.80;99.90
64226;DHT22;50545;56.064;26.178;2023-04-06T04:06:55;2.80;99.90
64226;DHT22;50545;56.064;26.178;2023-04-06T04:09:22;2.80;99.90
64226;DHT22;50545;56.064;26.178;2023-04-06T04:11:50;2.90;99.90
64226;DHT22;50545;56.064;26.178;2023-04-06T04:14:17;2.90;99.90
64226;DHT22;50545;56.064;26.178;2023-04-06T04:16:44;3.00;99.90
64226;DHT22;50545;56.064;26.178;2023-04-06T04:19:12;3.00;99.90
64226;DHT22;50545;56.064;26.178;2023-04-06T04:21:46;3.00;99.90
64226;DHT22;50545;56.064;26.178;2023-04-06T04:24:14;3.10;99.90
64226;DHT22;50545;56.064;26.178;2023-04-06T04:26:41;3.10;99.90
64226;DHT22;50545;56.064;26.178;2023-04-06T04:29:08;3.10;99.90
64226;DHT22;50545;56.064;26.178;2023-04-06T04:31:36;3.20;99.90
64226;DHT22;50545;56.064;26.178;2023-04-06T04:34:04;3.30;99.90
64226;DHT22;50545;56.064;26.178;2023-04-06T04:36:33;3.30;99.90
64226;DHT22;50545;56.064;26.178;2023-04-06T04:39:01;3.30;99.90
64226;DHT22;50545;56.064;26.178;2023-04-06T04:41:28;3.30;99.90
64226;DHT22;50545;56.064;26.178;2023-04-06T04:43:55;3.40;99.90
64226;DHT22;50545;56.064;26.178;2023-04-06T04:46:23;3.40;99.90
64226;DHT22;50545;56.064;26.178;2023-04-06T04:48:50;3.40;99.90
64226;DHT22;50545;56.064;26.178;2023-04-06T04:51:17;3.50;99.90
64226;DHT22;50545;56.064;26.178;2023-04-06T04:53:46;3.50;99.90
64226;DHT22;50545;56.064;26.178;2023-04-06T04:56:13;3.50;99.90
64226;DHT22;50545;56.064;26.178;2023-04-06T04:58:41;3.60;99.90
64226;DHT22;50545;56.064;26.178;2023-04-06T05:01:08;3.60;99.90
64226;DHT22;50545;56.064;26.178;2023-04-06T05:03:36;3.70;99.90
64226;DHT22;50545;56.064;26.178;2023-04-06T05:06:06;3.60;99.90
64226;DHT22;50545;56.064;26.178;2023-04-06T05:08:33;3.70;99.90
64226;DHT22;50545;56.064;26.178;2023-04-06T05:11:00;3.70;99.90
64226;DHT22;50545;56.064;26.178;2023-04-06T05:13:30;3.70;99.90
64226;DHT22;50545;56.064;26.178;2023-04-06T05:15:58;3.80;99.90
64226;DHT22;50545;56.064;26.178;2023-04-06T05:18:25;3.80;99.90
64226;DHT22;50545;56.064;26.178;2023-04-06T05:20:53;3.80;99.90
64226;DHT22;50545;56.064;26.178;2023-04-06T05:23:20;3.90;99.90
64226;DHT22;50545;56.064;26.178;2023-04-06T05:25:47;3.90;99.90
64226;DHT22;50545;56.064;26.178;2023-04-06T05:28:15;3.90;99.90
64226;DHT22;50545;56.064;26.178;2023-04-06T05:30:43;3.90;99.90
64226;DHT22;50545;56.064;26.178;2023-04-06T05:33:11;4.00;99.90
64226;DHT22;50545;56.064;26.178;2023-04-06T05:35:38;4.00;99.90
64226;DHT22;50545;56.064;26.178;2023-04-06T05:38:08;4.00;99.90
64226;DHT22;50545;56.064;26.178;2023-04-06T05:40:37;4.00;99.90
64226;DHT22;50545;56.064;26.178;2023-04-06T05:43:08;4.10;99.90
64226;DHT22;50545;56.064;26.178;2023-04-06T05:45:35;4.10;99.90
64226;DHT22;50545;56.064;26.178;2023-04-06T05:48:03;4.10;99.90
64226;DHT22;50545;56.064;26.178;2023-04-06T05:50:30;4.10;99.90
64226;DHT22;50545;56.064;26.178;2023-04-06T05:52:58;4.10;99.90
64226;DHT22;50545;56.064;26.178;2023-04-06T05:55:25;4.20;99.90
64226;DHT22;50545;56.064;26.178;2023-04-06T05:57:52;4.20;99.90
64226;DHT22;50545;56.064;26.178;2023-04-06T06:00:20;4.20;99.90
64226;DHT22;50545;56.064;26.178;2023-04-06T06:02:47;4.20;99.90
64226;DHT22;50545;56.064;26.178;2023-04-06T06:05:14;4.20;99.90
64226;DHT22;50545;56.064;26.178;2023-04-06T06:07:42;4.30;99.90
64226;DHT22;50545;56.064;26.178;2023-04-06T06:10:10;4.30;99.90
64226;DHT22;50545;56.064;26.178;2023-04-06T06:12:37;4.30;99.90
64226;DHT22;50545;56.064;26.178;2023-04-06T06:15:05;4.40;99.90
64226;DHT22;50545;56.064;26.178;2023-04-06T06:17:32;4.40;99.90
64226;DHT22;50545;56.064;26.178;2023-04-06T06:20:03;4.40;99.90
64226;DHT22;50545;56.064;26.178;2023-04-06T06:22:30;4.40;99.90
64226;DHT22;50545;56.064;26.178;2023-04-06T06:24:57;4.40;99.90
64226;DHT22;50545;56.064;26.178;2023-04-06T06:27:25;4.40;99.90
64226;DHT22;50545;56.064;26.178;2023-04-06T06:29:53;4.40;99.90
64226;DHT22;50545;56.064;26.178;2023-04-06T06:32:20;4.40;99.90
64226;DHT22;50545;56.064;26.178;2023-04-06T06:34:47;4.40;99.90
64226;DHT22;50545;56.064;26.178;2023-04-06T06:37:15;4.40;99.90
64226;DHT22;50545;56.064;26.178;2023-04-06T06:39:42;4.50;99.90
64226;DHT22;50545;56.064;26.178;2023-04-06T06:42:09;4.50;99.90
64226;DHT22;50545;56.064;26.178;2023-04-06T06:44:39;4.50;99.90
64226;DHT22;50545;56.064;26.178;2023-04-06T06:47:06;4.50;99.90
64226;DHT22;50545;56.064;26.178;2023-04-06T06:49:33;4.50;99.90
64226;DHT22;50545;56.064;26.178;2023-04-06T06:52:00;4.50;99.90
64226;DHT22;50545;56.064;26.178;2023-04-06T06:54:28;4.50;99.90
64226;DHT22;50545;56.064;26.178;2023-04-06T06:56:55;4.50;99.90
64226;DHT22;50545;56.064;26.178;2023-04-06T06:59:22;4.60;99.90
64226;DHT22;50545;56.064;26.178;2023-04-06T07:01:50;4.50;99.90
64226;DHT22;50545;56.064;26.178;2023-04-06T07:04:17;4.50;99.90
64226;DHT22;50545;56.064;26.178;2023-04-06T07:06:45;4.50;99.90
64226;DHT22;50545;56.064;26.178;2023-04-06T07:09:12;4.60;99.90
64226;DHT22;50545;56.064;26.178;2023-04-06T07:11:40;4.60;99.90
64226;DHT22;50545;56.064;26.178;2023-04-06T07:14:07;4.60;99.90
64226;DHT22;50545;56.064;26.178;2023-04-06T07:16:35;4.60;99.90
64226;DHT22;50545;56.064;26.178;2023-04-06T07:19:02;4.60;99.90
64226;DHT22;50545;56.064;26.178;2023-04-06T07:21:29;4.60;99.90
64226;DHT22;50545;56.064;26.178;2023-04-06T07:23:57;4.60;99.90
64226;DHT22;50545;56.064;26.178;2023-04-06T07:26:24;4.60;99.90
64226;DHT22;50545;56.064;26.178;2023-04-06T07:28:51;4.60;99.90
64226;DHT22;50545;56.064;26.178;2023-04-06T07:31:20;4.60;99.90
64226;DHT22;50545;56.064;26.178;2023-04-06T07:33:48;4.60;99.90
64226;DHT22;50545;56.064;26.178;2023-04-06T07:36:16;4.60;99.90
64226;DHT22;50545;56.064;26.178;2023-04-06T07:38:44;4.60;99.90
64226;DHT22;50545;56.064;26.178;2023-04-06T07:41:13;4.60;99.90
64226;DHT22;50545;56.064;26.178;2023-04-06T07:43:40;4.60;99.90
64226;DHT22;50545;56.064;26.178;2023-04-06T07:46:07;4.70;99.90
64226;DHT22;50545;56.064;26.178;2023-04-06T07:48:35;4.70;99.90
64226;DHT22;50545;56.064;26.178;2023-04-06T07:51:04;4.70;99.90
64226;DHT22;50545;56.064;26.178;2023-04-06T07:53:33;4.70;99.90
64226;DHT22;50545;56.064;26.178;2023-04-06T07:56:00;4.70;99.90
64226;DHT22;50545;56.064;26.178;2023-04-06T07:58:27;4.70;99.90
64226;DHT22;50545;56.064;26.178;2023-04-06T08:00:55;4.70;99.90
64226;DHT22;50545;56.064;26.178;2023-04-06T08:03:22;4.70;99.90
64226;DHT22;50545;56.064;26.178;2023-04-06T08:05:52;4.70;99.90
64226;DHT22;50545;56.064;26.178;2023-04-06T08:08:20;4.70;99.90
64226;DHT22;50545;56.064;26.178;2023-04-06T08:10:48;4.70;99.90
64226;DHT22;50545;56.064;26.178;2023-04-06T08:13:15;4.70;99.90
64226;DHT22;50545;56.064;26.178;2023-04-06T08:15:43;4.80;99.90
64226;DHT22;50545;56.064;26.178;2023-04-06T08:18:12;4.70;99.90
64226;DHT22;50545;56.064;26.178;2023-04-06T08:20:39;4.80;99.90
64226;DHT22;50545;56.064;26.178;2023-04-06T08:23:07;4.70;99.90
64226;DHT22;50545;56.064;26.178;2023-04-06T08:25:36;4.70;99.90
64226;DHT22;50545;56.064;26.178;2023-04-06T08:28:04;4.70;99.90
64226;DHT22;50545;56.064;26.178;2023-04-06T08:30:31;4.70;99.90
64226;DHT22;50545;56.064;26.178;2023-04-06T08:32:58;4.70;99.90
64226;DHT22;50545;56.064;26.178;2023-04-06T08:35:26;4.70;99.90
64226;DHT22;50545;56.064;26.178;2023-04-06T08:37:53;4.70;99.90
64226;DHT22;50545;56.064;26.178;2023-04-06T08:40:21;4.80;99.90
64226;DHT22;50545;56.064;26.178;2023-04-06T08:42:55;4.70;99.90
64226;DHT22;50545;56.064;26.178;2023-04-06T08:45:23;4.80;99.90
64226;DHT22;50545;56.064;26.178;2023-04-06T08:47:51;4.80;99.90
64226;DHT22;50545;56.064;26.178;2023-04-06T08:50:22;4.70;99.90
64226;DHT22;50545;56.064;26.178;2023-04-06T08:52:50;4.80;99.90
64226;DHT22;50545;56.064;26.178;2023-04-06T08:55:18;4.80;99.90
64226;DHT22;50545;56.064;26.178;2023-04-06T08:57:45;4.80;99.90
64226;DHT22;50545;56.064;26.178;2023-04-06T09:00:14;4.80;99.90
64226;DHT22;50545;56.064;26.178;2023-04-06T09:02:43;4.80;99.90
64226;DHT22;50545;56.064;26.178;2023-04-06T09:05:12;4.90;99.90
64226;DHT22;50545;56.064;26.178;2023-04-06T09:07:39;4.90;99.90
64226;DHT22;50545;56.064;26.178;2023-04-06T09:10:07;4.90;99.90
64226;DHT22;50545;56.064;26.178;2023-04-06T09:12:35;4.90;99.90
64226;DHT22;50545;56.064;26.178;2023-04-06T09:15:03;4.90;99.90
64226;DHT22;50545;56.064;26.178;2023-04-06T09:17:32;4.90;99.90
64226;DHT22;50545;56.064;26.178;2023-04-06T09:20:02;4.90;99.90
64226;DHT22;50545;56.064;26.178;2023-04-06T09:22:37;4.90;99.90
64226;DHT22;50545;56.064;26.178;2023-04-06T09:25:06;4.90;99.90
64226;DHT22;50545;56.064;26.178;2023-04-06T09:27:35;4.80;99.90
64226;DHT22;50545;56.064;26.178;2023-04-06T09:30:20;4.90;99.90
64226;DHT22;50545;56.064;26.178;2023-04-06T09:32:49;4.90;99.90
64226;DHT22;50545;56.064;26.178;2023-04-06T09:35:19;5.00;99.90
64226;DHT22;50545;56.064;26.178;2023-04-06T09:37:50;5.00;99.90
64226;DHT22;50545;56.064;26.178;2023-04-06T09:40:19;5.00;99.90
64226;DHT22;50545;56.064;26.178;2023-04-06T09:42:51;5.10;99.90
64226;DHT22;50545;56.064;26.178;2023-04-06T09:45:24;5.10;99.90
64226;DHT22;50545;56.064;26.178;2023-04-06T09:47:53;5.10;99.90
64226;DHT22;50545;56.064;26.178;2023-04-06T09:50:24;5.10;99.90
64226;DHT22;50545;56.064;26.178;2023-04-06T09:52:54;5.10;99.90
64226;DHT22;50545;56.064;26.178;2023-04-06T09:55:34;5.20;99.90
64226;DHT22;50545;56.064;26.178;2023-04-06T09:58:05;5.20;99.90
64226;DHT22;50545;56.064;26.178;2023-04-06T10:00:43;5.10;99.90
64226;DHT22;50545;56.064;26.178;2023-04-06T10:06:05;5.10;99.90
64226;DHT22;50545;56.064;26.178;2023-04-06T10:08:35;5.20;99.90
64226;DHT22;50545;56.064;26.178;2023-04-06T10:11:03;5.20;99.90
64226;DHT22;50545;56.064;26.178;2023-04-06T10:13:35;5.30;99.90
64226;DHT22;50545;56.064;26.178;2023-04-06T10:16:04;5.30;99.90
64226;DHT22;50545;56.064;26.178;2023-04-06T10:18:32;5.30;99.90
64226;DHT22;50545;56.064;26.178;2023-04-06T10:21:08;5.40;99.90
64226;DHT22;50545;56.064;26.178;2023-04-06T10:23:44;5.40;99.90
64226;DHT22;50545;56.064;26.178;2023-04-06T10:26:16;5.40;99.90
64226;DHT22;50545;56.064;26.178;2023-04-06T10:28:45;5.40;99.90
64226;DHT22;50545;56.064;26.178;2023-04-06T10:31:13;5.40;99.90
64226;DHT22;50545;56.064;26.178;2023-04-06T10:33:41;5.50;99.90
64226;DHT22;50545;56.064;26.178;2023-04-06T10:36:21;5.60;99.90
64226;DHT22;50545;56.064;26.178;2023-04-06T10:39:00;5.60;99.90
64226;DHT22;50545;56.064;26.178;2023-04-06T10:41:35;5.60;99.90
64226;DHT22;50545;56.064;26.178;2023-04-06T10:44:03;5.60;99.90
64226;DHT22;50545;56.064;26.178;2023-04-06T10:46:32;5.60;99.90
64226;DHT22;50545;56.064;26.178;2023-04-06T10:49:12;5.60;99.90
64226;DHT22;50545;56.064;26.178;2023-04-06T10:51:39;5.60;99.90
64226;DHT22;50545;56.064;26.178;2023-04-06T10:54:07;5.60;99.90
64226;DHT22;50545;56.064;26.178;2023-04-06T10:56:37;5.70;99.90
64226;DHT22;50545;56.064;26.178;2023-04-06T10:59:05;5.70;99.90
64226;DHT22;50545;56.064;26.178;2023-04-06T11:01:33;5.70;99.90
64226;DHT22;50545;56.064;26.178;2023-04-06T11:04:01;5.80;99.90
64226;DHT22;50545;56.064;26.178;2023-04-06T11:06:30;5.80;99.90
64226;DHT22;50545;56.064;26.178;2023-04-06T11:08:58;5.90;99.90
64226;DHT22;50545;56.064;26.178;2023-04-06T11:11:26;5.90;99.90
64226;DHT22;50545;56.064;26.178;2023-04-06T11:13:56;5.90;99.90
64226;DHT22;50545;56.064;26.178;2023-04-06T11:16:31;6.00;99.90
64226;DHT22;50545;56.064;26.178;2023-04-06T11:19:01;6.10;99.90
64226;DHT22;50545;56.064;26.178;2023-04-06T11:21:36;6.10;99.90
64226;DHT22;50545;56.064;26.178;2023-04-06T11:24:20;6.20;99.90
64226;DHT22;50545;56.064;26.178;2023-04-06T11:27:00;6.30;99.90
64226;DHT22;50545;56.064;26.178;2023-04-06T11:29:31;6.40;99.90
64226;DHT22;50545;56.064;26.178;2023-04-06T11:32:03;6.50;99.90
64226;DHT22;50545;56.064;26.178;2023-04-06T11:34:34;6.60;99.90
64226;DHT22;50545;56.064;26.178;2023-04-06T11:37:11;6.60;99.90
64226;DHT22;50545;56.064;26.178;2023-04-06T11:39:40;6.70;99.90
64226;DHT22;50545;56.064;26.178;2023-04-06T11:42:08;6.80;99.90
64226;DHT22;50545;56.064;26.178;2023-04-06T11:44:45;6.80;99.90
64226;DHT22;50545;56.064;26.178;2023-04-06T11:47:16;6.90;99.90
64226;DHT22;50545;56.064;26.178;2023-04-06T11:49:44;6.90;99.90
64226;DHT22;50545;56.064;26.178;2023-04-06T11:52:15;6.90;99.90
64226;DHT22;50545;56.064;26.178;2023-04-06T11:54:43;7.00;99.90
64226;DHT22;50545;56.064;26.178;2023-04-06T11:57:10;7.10;99.90
64226;DHT22;50545;56.064;26.178;2023-04-06T11:59:37;7.30;99.90
64226;DHT22;50545;56.064;26.178;2023-04-06T12:02:05;7.40;99.90
64226;DHT22;50545;56.064;26.178;2023-04-06T12:04:32;7.40;99.90
64226;DHT22;50545;56.064;26.178;2023-04-06T12:07:00;7.40;99.90
64226;DHT22;50545;56.064;26.178;2023-04-06T12:09:27;7.40;99.90
64226;DHT22;50545;56.064;26.178;2023-04-06T12:11:54;7.40;99.90
64226;DHT22;50545;56.064;26.178;2023-04-06T12:14:23;7.30;99.90
64226;DHT22;50545;56.064;26.178;2023-04-06T12:16:50;7.30;99.90
64226;DHT22;50545;56.064;26.178;2023-04-06T12:19:18;7.40;99.90
64226;DHT22;50545;56.064;26.178;2023-04-06T12:21:45;7.40;99.90
64226;DHT22;50545;56.064;26.178;2023-04-06T12:24:12;7.40;99.90
64226;DHT22;50545;56.064;26.178;2023-04-06T12:26:40;7.40;99.90
64226;DHT22;50545;56.064;26.178;2023-04-06T12:29:08;7.40;99.90
64226;DHT22;50545;56.064;26.178;2023-04-06T12:31:36;7.50;99.90
64226;DHT22;50545;56.064;26.178;2023-04-06T12:34:05;7.80;99.90
64226;DHT22;50545;56.064;26.178;2023-04-06T12:36:33;7.90;99.90
64226;DHT22;50545;56.064;26.178;2023-04-06T12:39:00;8.00;99.90
64226;DHT22;50545;56.064;26.178;2023-04-06T12:41:28;8.10;99.90
64226;DHT22;50545;56.064;26.178;2023-04-06T12:43:55;8.30;99.90
64226;DHT22;50545;56.064;26.178;2023-04-06T12:46:23;8.30;99.90
64226;DHT22;50545;56.064;26.178;2023-04-06T12:48:53;8.30;99.90
64226;DHT22;50545;56.064;26.178;2023-04-06T12:51:22;8.30;99.90
64226;DHT22;50545;56.064;26.178;2023-04-06T12:53:49;8.40;99.90
64226;DHT22;50545;56.064;26.178;2023-04-06T12:56:17;8.40;99.90
64226;DHT22;50545;56.064;26.178;2023-04-06T12:58:45;8.50;99.90
64226;DHT22;50545;56.064;26.178;2023-04-06T13:01:13;8.50;99.90
64226;DHT22;50545;56.064;26.178;2023-04-06T13:03:41;8.50;99.90
64226;DHT22;50545;56.064;26.178;2023-04-06T13:06:09;8.50;99.90
64226;DHT22;50545;56.064;26.178;2023-04-06T13:08:37;8.70;99.90
64226;DHT22;50545;56.064;26.178;2023-04-06T13:11:05;9.10;99.90
64226;DHT22;50545;56.064;26.178;2023-04-06T13:13:35;9.50;99.90
64226;DHT22;50545;56.064;26.178;2023-04-06T13:16:05;9.80;99.90
64226;DHT22;50545;56.064;26.178;2023-04-06T13:18:34;10.20;99.90
64226;DHT22;50545;56.064;26.178;2023-04-06T13:21:02;10.40;99.90
64226;DHT22;50545;56.064;26.178;2023-04-06T13:23:29;10.40;99.90
64226;DHT22;50545;56.064;26.178;2023-04-06T13:26:01;10.50;99.90
64226;DHT22;50545;56.064;26.178;2023-04-06T13:28:29;10.60;99.90
64226;DHT22;50545;56.064;26.178;2023-04-06T13:30:58;10.70;99.90
64226;DHT22;50545;56.064;26.178;2023-04-06T13:33:26;11.00;99.90
64226;DHT22;50545;56.064;26.178;2023-04-06T13:35:53;11.30;99.90
64226;DHT22;50545;56.064;26.178;2023-04-06T13:38:21;11.40;99.90
64226;DHT22;50545;56.064;26.178;2023-04-06T13:40:51;11.30;99.90
64226;DHT22;50545;56.064;26.178;2023-04-06T13:43:18;11.10;99.90
64226;DHT22;50545;56.064;26.178;2023-04-06T13:45:50;10.80;99.90
64226;DHT22;50545;56.064;26.178;2023-04-06T13:48:18;10.50;99.90
64226;DHT22;50545;56.064;26.178;2023-04-06T13:50:46;10.50;99.90
64226;DHT22;50545;56.064;26.178;2023-04-06T13:53:13;10.70;99.90
64226;DHT22;50545;56.064;26.178;2023-04-06T13:55:40;10.90;99.90
64226;DHT22;50545;56.064;26.178;2023-04-06T13:58:08;11.10;99.90
64226;DHT22;50545;56.064;26.178;2023-04-06T14:00:35;11.40;99.90
64226;DHT22;50545;56.064;26.178;2023-04-06T14:03:03;11.60;99.90
64226;DHT22;50545;56.064;26.178;2023-04-06T14:05:32;11.90;99.90
64226;DHT22;50545;56.064;26.178;2023-04-06T14:08:00;12.10;99.20
64226;DHT22;50545;56.064;26.178;2023-04-06T14:10:27;12.10;98.00
64226;DHT22;50545;56.064;26.178;2023-04-06T14:12:55;11.80;97.70
64226;DHT22;50545;56.064;26.178;2023-04-06T14:15:22;11.80;99.00
64226;DHT22;50545;56.064;26.178;2023-04-06T14:17:50;11.70;98.70
64226;DHT22;50545;56.064;26.178;2023-04-06T14:20:19;11.60;98.30
64226;DHT22;50545;56.064;26.178;2023-04-06T14:22:46;11.50;98.40
64226;DHT22;50545;56.064;26.178;2023-04-06T14:25:13;11.20;99.00
64226;DHT22;50545;56.064;26.178;2023-04-06T14:27:41;11.00;99.90
64226;DHT22;50545;56.064;26.178;2023-04-06T14:30:09;10.90;99.90
64226;DHT22;50545;56.064;26.178;2023-04-06T14:32:36;10.90;99.90
64226;DHT22;50545;56.064;26.178;2023-04-06T14:35:05;11.00;99.90
64226;DHT22;50545;56.064;26.178;2023-04-06T14:37:34;11.10;99.90
64226;DHT22;50545;56.064;26.178;2023-04-06T14:40:02;11.20;99.90
64226;DHT22;50545;56.064;26.178;2023-04-06T14:42:29;11.30;99.90
64226;DHT22;50545;56.064;26.178;2023-04-06T14:44:57;11.40;99.90
64226;DHT22;50545;56.064;26.178;2023-04-06T14:47:24;11.50;99.90
64226;DHT22;50545;56.064;26.178;2023-04-06T14:49:52;11.50;99.40
64226;DHT22;50545;56.064;26.178;2023-04-06T14:52:20;11.40;99.90
64226;DHT22;50545;56.064;26.178;2023-04-06T14:54:47;11.50;99.90
64226;DHT22;50545;56.064;26.178;2023-04-06T14:57:14;11.50;99.90
64226;DHT22;50545;56.064;26.178;2023-04-06T14:59:42;11.60;99.20
64226;DHT22;50545;56.064;26.178;2023-04-06T15:02:09;11.60;99.60
64226;DHT22;50545;56.064;26.178;2023-04-06T15:04:36;11.70;99.00
64226;DHT22;50545;56.064;26.178;2023-04-06T15:07:04;11.80;98.60
64226;DHT22;50545;56.064;26.178;2023-04-06T15:09:31;12.10;98.60
64226;DHT22;50545;56.064;26.178;2023-04-06T15:12:00;12.40;98.00
64226;DHT22;50545;56.064;26.178;2023-04-06T15:14:27;12.50;96.80
64226;DHT22;50545;56.064;26.178;2023-04-06T15:16:54;12.70;96.30
64226;DHT22;50545;56.064;26.178;2023-04-06T15:19:22;12.80;95.60
64226;DHT22;50545;56.064;26.178;2023-04-06T15:21:49;12.80;95.70
64226;DHT22;50545;56.064;26.178;2023-04-06T15:24:16;12.80;96.00
64226;DHT22;50545;56.064;26.178;2023-04-06T15:26:43;12.90;96.30
64226;DHT22;50545;56.064;26.178;2023-04-06T15:29:12;13.00;94.80
64226;DHT22;50545;56.064;26.178;2023-04-06T15:31:39;13.00;94.30
64226;DHT22;50545;56.064;26.178;2023-04-06T15:34:07;13.10;94.90
64226;DHT22;50545;56.064;26.178;2023-04-06T15:36:35;13.30;94.10